sensor_id;sensor_type;location;lat;lon;timestamp;pressure;altitude;pressure_sealevel;temperature;humidity
70458;BME280;57919;56.194;95.716;2024-01-27T00:04:48;101070.00;;;-14.99;63.64
70458;BME280;57919;56.194;95.716;2024-01-27T00:14:50;101065.34;;;-15.07;63.76
70458;BME280;57919;56.194;95.716;2024-01-27T00:24:52;101072.81;;;-15.14;62.91
70458;BME280;57919;56.194;95.716;2024-01-27T00:34:54;101078.47;;;-15.23;62.82
70458;BME280;57919;56.194;95.716;2024-01-27T00:44:55;101091.31;;;-15.26;63.19
70458;BME280;57919;56.194;95.716;2024-01-27T00:54:57;101097.13;;;-15.31;63.08
70458;BME280;57919;56.194;95.716;2024-01-27T01:04:59;101096.28;;;-15.50;63.56
70458;BME280;57919;56.194;95.716;2024-01-27T01:15:02;101097.66;;;-15.58;63.54
70458;BME280;57919;56.194;95.716;2024-01-27T01:25:05;101101.19;;;-15.75;63.28
70458;BME280;57919;56.194;95.716;2024-01-27T01:35:07;101126.44;;;-15.71;63.81
70458;BME280;57919;56.194;95.716;2024-01-27T01:45:11;101126.97;;;-15.78;63.44
70458;BME280;57919;56.194;95.716;2024-01-27T01:55:14;101138.59;;;-15.70;63.82
70458;BME280;57919;56.194;95.716;2024-01-27T02:05:19;101143.75;;;-15.70;64.00
70458;BME280;57919;56.194;95.716;2024-01-27T02:15:21;101147.19;;;-15.52;64.38
70458;BME280;57919;56.194;95.716;2024-01-27T02:25:23;101154.72;;;-15.39;63.19
70458;BME280;57919;56.194;95.716;2024-01-27T02:35:25;101140.13;;;-15.37;63.93
70458;BME280;57919;56.194;95.716;2024-01-27T02:45:27;101149.97;;;-15.10;63.56
70458;BME280;57919;56.194;95.716;2024-01-27T02:55:30;101148.34;;;-14.89;63.03
70458;BME280;57919;56.194;95.716;2024-01-27T03:05:32;101155.97;;;-14.73;63.28
70458;BME280;57919;56.194;95.716;2024-01-27T03:15:33;101151.03;;;-14.47;62.75
70458;BME280;57919;56.194;95.716;2024-01-27T03:25:35;101160.06;;;-14.38;63.44
70458;BME280;57919;56.194;95.716;2024-01-27T03:35:37;101164.84;;;-14.07;62.52
70458;BME280;57919;56.194;95.716;2024-01-27T03:45:39;101156.81;;;-13.69;63.07
70458;BME280;57919;56.194;95.716;2024-01-27T03:55:41;101171.19;;;-13.34;62.36
70458;BME280;57919;56.194;95.716;2024-01-27T04:05:43;101169.81;;;-12.55;63.45
70458;BME280;57919;56.194;95.716;2024-01-27T04:15:45;101156.44;;;-12.40;61.55
70458;BME280;57919;56.194;95.716;2024-01-27T04:25:47;101177.50;;;-12.09;61.38
70458;BME280;57919;56.194;95.716;2024-01-27T04:35:49;101156.41;;;-11.89;61.57
70458;BME280;57919;56.194;95.716;2024-01-27T04:45:51;101192.00;;;-11.64;61.24
70458;BME280;57919;56.194;95.716;2024-01-27T04:55:53;101194.31;;;-11.73;61.42
70458;BME280;57919;56.194;95.716;2024-01-27T05:05:55;101186.81;;;-11.07;60.27
70458;BME280;57919;56.194;95.716;2024-01-27T05:15:56;101183.88;;;-10.60;60.46
70458;BME280;57919;56.194;95.716;2024-01-27T05:25:58;101184.00;;;-10.24;59.94
70458;BME280;57919;56.194;95.716;2024-01-27T05:36:00;101183.38;;;-10.14;59.95
70458;BME280;57919;56.194;95.716;2024-01-27T05:46:03;101190.63;;;-10.03;60.46
70458;BME280;57919;56.194;95.716;2024-01-27T05:56:05;101172.63;;;-9.91;60.23
70458;BME280;57919;56.194;95.716;2024-01-27T06:06:07;101156.19;;;-8.25;58.85
70458;BME280;57919;56.194;95.716;2024-01-27T06:16:09;101174.91;;;-8.06;61.47
70458;BME280;57919;56.194;95.716;2024-01-27T06:26:13;101151.56;;;-5.93;56.64
70458;BME280;57919;56.194;95.716;2024-01-27T06:36:15;101142.41;;;-7.62;58.58
70458;BME280;57919;56.194;95.716;2024-01-27T06:46:17;101147.56;;;-7.68;58.72
70458;BME280;57919;56.194;95.716;2024-01-27T06:56:19;101147.91;;;-7.45;58.66
70458;BME280;57919;56.194;95.716;2024-01-27T07:06:21;101142.50;;;-7.54;59.61
70458;BME280;57919;56.194;95.716;2024-01-27T07:16:23;101139.63;;;-7.71;59.50
70458;BME280;57919;56.194;95.716;2024-01-27T07:26:25;101148.25;;;-7.78;59.58
70458;BME280;57919;56.194;95.716;2024-01-27T07:36:26;101155.19;;;-7.83;59.59
70458;BME280;57919;56.194;95.716;2024-01-27T07:46:32;101134.22;;;-7.80;60.46
70458;BME280;57919;56.194;95.716;2024-01-27T07:56:34;101139.41;;;-7.83;60.10
70458;BME280;57919;56.194;95.716;2024-01-27T08:06:46;101147.78;;;-7.53;60.14
70458;BME280;57919;56.194;95.716;2024-01-27T08:16:49;101149.84;;;-7.33;62.90
70458;BME280;57919;56.194;95.716;2024-01-27T08:26:51;101155.31;;;-7.18;63.39
70458;BME280;57919;56.194;95.716;2024-01-27T08:36:53;101165.75;;;-7.24;62.96
70458;BME280;57919;56.194;95.716;2024-01-27T08:46:55;101170.09;;;-7.26;63.36
70458;BME280;57919;56.194;95.716;2024-01-27T08:56:57;101184.91;;;-7.33;63.20
70458;BME280;57919;56.194;95.716;2024-01-27T09:06:58;101186.44;;;-7.45;63.74
70458;BME280;57919;56.194;95.716;2024-01-27T09:17:00;101195.03;;;-7.57;63.56
70458;BME280;57919;56.194;95.716;2024-01-27T09:27:03;101199.03;;;-7.79;63.73
70458;BME280;57919;56.194;95.716;2024-01-27T09:37:05;101191.47;;;-8.09;64.13
70458;BME280;57919;56.194;95.716;2024-01-27T09:47:07;101190.19;;;-8.31;64.50
70458;BME280;57919;56.194;95.716;2024-01-27T09:57:10;101212.59;;;-8.48;64.12
70458;BME280;57919;56.194;95.716;2024-01-27T10:07:14;101221.78;;;-8.68;64.39
70458;BME280;57919;56.194;95.716;2024-01-27T10:17:23;101223.25;;;-8.81;64.51
70458;BME280;57919;56.194;95.716;2024-01-27T10:27:26;101219.09;;;-9.10;64.33
70458;BME280;57919;56.194;95.716;2024-01-27T10:37:28;101231.19;;;-9.17;64.71
70458;BME280;57919;56.194;95.716;2024-01-27T10:47:32;101245.00;;;-9.24;64.71
70458;BME280;57919;56.194;95.716;2024-01-27T10:57:34;101248.94;;;-9.41;64.87
70458;BME280;57919;56.194;95.716;2024-01-27T11:07:38;101258.94;;;-9.60;65.30
70458;BME280;57919;56.194;95.716;2024-01-27T11:17:41;101262.25;;;-9.67;64.98
70458;BME280;57919;56.194;95.716;2024-01-27T11:27:45;101280.13;;;-9.84;65.49
70458;BME280;57919;56.194;95.716;2024-01-27T11:37:48;101296.09;;;-9.74;64.89
70458;BME280;57919;56.194;95.716;2024-01-27T11:47:50;101297.31;;;-9.62;64.19
70458;BME280;57919;56.194;95.716;2024-01-27T11:57:52;101293.06;;;-9.90;64.21
70458;BME280;57919;56.194;95.716;2024-01-27T12:07:54;101278.56;;;-10.08;63.04
70458;BME280;57919;56.194;95.716;2024-01-27T12:17:56;101272.38;;;-10.43;63.48
70458;BME280;57919;56.194;95.716;2024-01-27T12:28:02;101266.19;;;-10.75;63.95
70458;BME280;57919;56.194;95.716;2024-01-27T12:38:07;101281.94;;;-11.01;63.68
70458;BME280;57919;56.194;95.716;2024-01-27T12:48:10;101282.78;;;-11.29;63.17
70458;BME280;57919;56.194;95.716;2024-01-27T12:58:12;101272.44;;;-11.53;63.44
70458;BME280;57919;56.194;95.716;2024-01-27T13:08:13;101265.84;;;-11.67;62.89
70458;BME280;57919;56.194;95.716;2024-01-27T13:18:15;101274.09;;;-11.82;63.38
70458;BME280;57919;56.194;95.716;2024-01-27T13:28:17;101271.00;;;-11.95;62.99
70458;BME280;57919;56.194;95.716;2024-01-27T13:38:19;101266.63;;;-12.20;63.25
70458;BME280;57919;56.194;95.716;2024-01-27T13:48:24;101252.09;;;-12.37;63.62
70458;BME280;57919;56.194;95.716;2024-01-27T13:58:27;101230.19;;;-12.66;63.84
70458;BME280;57919;56.194;95.716;2024-01-27T14:08:29;101238.44;;;-12.78;64.38
70458;BME280;57919;56.194;95.716;2024-01-27T14:18:30;101235.06;;;-12.98;65.03
70458;BME280;57919;56.194;95.716;2024-01-27T14:28:33;101225.63;;;-13.18;65.45
70458;BME280;57919;56.194;95.716;2024-01-27T14:38:36;101221.91;;;-13.25;65.63
70458;BME280;57919;56.194;95.716;2024-01-27T14:48:38;101223.19;;;-13.36;65.50
70458;BME280;57919;56.194;95.716;2024-01-27T14:58:40;101210.00;;;-13.41;65.91
70458;BME280;57919;56.194;95.716;2024-01-27T15:08:42;101185.91;;;-13.57;66.39
70458;BME280;57919;56.194;95.716;2024-01-27T15:18:47;101173.63;;;-13.61;66.84
70458;BME280;57919;56.194;95.716;2024-01-27T15:28:49;101166.81;;;-13.58;66.95
70458;BME280;57919;56.194;95.716;2024-01-27T15:38:51;101174.22;;;-13.46;67.17
70458;BME280;57919;56.194;95.716;2024-01-27T15:48:52;101162.88;;;-13.48;67.67
70458;BME280;57919;56.194;95.716;2024-01-27T15:58:54;101155.59;;;-13.34;67.51
70458;BME280;57919;56.194;95.716;2024-01-27T16:08:57;101159.72;;;-13.17;67.01
70458;BME280;57919;56.194;95.716;2024-01-27T16:18:59;101156.13;;;-12.97;66.21
70458;BME280;57919;56.194;95.716;2024-01-27T16:29:01;101142.53;;;-13.12;64.59
70458;BME280;57919;56.194;95.716;2024-01-27T16:39:05;101136.78;;;-13.27;64.96
70458;BME280;57919;56.194;95.716;2024-01-27T16:49:07;101137.06;;;-13.42;64.55
70458;BME280;57919;56.194;95.716;2024-01-27T16:59:09;101140.75;;;-13.59;64.23
70458;BME280;57919;56.194;95.716;2024-01-27T17:09:11;101143.19;;;-13.85;64.41
70458;BME280;57919;56.194;95.716;2024-01-27T17:19:15;101123.56;;;-13.99;64.94
70458;BME280;57919;56.194;95.716;2024-01-27T17:29:17;101129.81;;;-13.94;65.21
70458;BME280;57919;56.194;95.716;2024-01-27T17:39:20;101128.72;;;-13.78;65.15
70458;BME280;57919;56.194;95.716;2024-01-27T17:49:22;101125.72;;;-13.66;65.66
70458;BME280;57919;56.194;95.716;2024-01-27T17:59:24;101116.31;;;-13.63;65.40
70458;BME280;57919;56.194;95.716;2024-01-27T18:09:26;101108.41;;;-13.66;66.00
70458;BME280;57919;56.194;95.716;2024-01-27T18:19:28;101104.50;;;-13.77;66.62
70458;BME280;57919;56.194;95.716;2024-01-27T18:29:30;101088.81;;;-14.01;67.63
70458;BME280;57919;56.194;95.716;2024-01-27T18:39:32;101071.31;;;-14.05;67.50
70458;BME280;57919;56.194;95.716;2024-01-27T18:49:34;101059.78;;;-14.12;67.41
70458;BME280;57919;56.194;95.716;2024-01-27T18:59:36;101063.09;;;-14.16;66.96
70458;BME280;57919;56.194;95.716;2024-01-27T19:09:39;101075.00;;;-14.21;68.60
70458;BME280;57919;56.194;95.716;2024-01-27T19:19:41;101068.59;;;-14.08;67.43
70458;BME280;57919;56.194;95.716;2024-01-27T19:29:43;101068.41;;;-14.13;67.00
70458;BME280;57919;56.194;95.716;2024-01-27T19:39:45;101055.72;;;-14.05;67.72
70458;BME280;57919;56.194;95.716;2024-01-27T19:49:47;101062.22;;;-13.94;67.41
70458;BME280;57919;56.194;95.716;2024-01-27T19:59:49;101057.91;;;-13.93;67.39
70458;BME280;57919;56.194;95.716;2024-01-27T20:09:51;101035.56;;;-14.11;66.72
70458;BME280;57919;56.194;95.716;2024-01-27T20:19:53;101026.84;;;-14.33;68.12
70458;BME280;57919;56.194;95.716;2024-01-27T20:29:55;101001.50;;;-14.39;68.64
70458;BME280;57919;56.194;95.716;2024-01-27T20:39:57;101005.44;;;-14.28;67.95
70458;BME280;57919;56.194;95.716;2024-01-27T20:49:58;101006.25;;;-14.29;68.04
70458;BME280;57919;56.194;95.716;2024-01-27T21:00:03;101005.88;;;-14.38;67.09
70458;BME280;57919;56.194;95.716;2024-01-27T21:10:07;101000.53;;;-14.43;67.49
70458;BME280;57919;56.194;95.716;2024-01-27T21:20:10;100971.03;;;-14.65;67.53
70458;BME280;57919;56.194;95.716;2024-01-27T21:30:13;100976.84;;;-14.50;67.13
70458;BME280;57919;56.194;95.716;2024-01-27T21:40:15;100957.34;;;-14.61;67.02
70458;BME280;57919;56.194;95.716;2024-01-27T21:50:20;100950.38;;;-14.62;67.16
70458;BME280;57919;56.194;95.716;2024-01-27T22:00:22;100948.50;;;-14.66;66.85
70458;BME280;57919;56.194;95.716;2024-01-27T22:10:24;100952.69;;;-14.70;66.66
70458;BME280;57919;56.194;95.716;2024-01-27T22:20:26;100951.28;;;-14.83;67.01
70458;BME280;57919;56.194;95.716;2024-01-27T22:30:28;100943.44;;;-14.84;67.04
70458;BME280;57919;56.194;95.716;2024-01-27T22:40:30;100946.50;;;-14.51;68.69
70458;BME280;57919;56.194;95.716;2024-01-27T22:50:32;100944.78;;;-14.28;69.15
70458;BME280;57919;56.194;95.716;2024-01-27T23:00:33;100946.00;;;-14.19;67.90
70458;BME280;57919;56.194;95.716;2024-01-27T23:10:37;100935.69;;;-14.40;67.70
70458;BME280;57919;56.194;95.716;2024-01-27T23:20:40;100954.09;;;-14.33;68.04
70458;BME280;57919;56.194;95.716;2024-01-27T23:30:42;100944.66;;;-14.31;68.41
70458;BME280;57919;56.194;95.716;2024-01-27T23:40:44;100956.81;;;-14.30;68.43
70458;BME280;57919;56.194;95.716;2024-01-27T23:50:46;100951.38;;;-14.37;68.29
